Alcove, New York
Current Conditions -  °F | °C
As of 9:51 AM on Thursday 23 Oct 2014 (Local Time) from KALB Reporting Station
Light Rain Light Rain  
Wind Chill: 43°   Ceiling: 1000
Heat Index: 47°   Visibility: 10mi
Dew Point: 43°   Wind: 9mph
Humidity: 86%   Direction: 10°N
Pressure: 29.86"   Gusts: NA
Location:  42.47°N, 73.93°W
Report Text: KALB 231351Z 01008KT 10SM -RA SCT008 BKN010 OVC017 08/06 A2986 RMK AO2 RAE06B25 SLP113 P0000 T00830061
Loading
Personal Weather Stations






























Interactive Weather Map New forecast layout! Learn more

10-Day Weather Forecast

Advertisements
Track Severe Weather on mobile